createdAt,value
2023-02-15T00:01:53.354Z,109.73
2023-02-15T00:04:23.433Z,102.53
2023-02-15T00:06:50.713Z,105.83
2023-02-15T00:09:17.693Z,102.50
2023-02-15T00:11:50.863Z,99.23
2023-02-15T00:14:23.484Z,93.77
2023-02-15T00:16:52.455Z,104.40
2023-02-15T00:19:21.387Z,102.23
2023-02-15T00:21:49.365Z,94.10
2023-02-15T00:24:19.023Z,98.17
2023-02-15T00:26:47.314Z,105.63
2023-02-15T00:29:15.853Z,97.17
2023-02-15T00:31:43.589Z,108.27
2023-02-15T00:34:18.381Z,100.03
2023-02-15T00:36:45.948Z,102.37
2023-02-15T00:39:13.445Z,102.43
2023-02-15T00:41:40.778Z,103.13
2023-02-15T00:44:08.964Z,104.43
2023-02-15T00:46:36.568Z,111.43
2023-02-15T00:49:04.635Z,109.67
2023-02-15T00:51:32.128Z,111.07
2023-02-15T00:53:59.284Z,92.50
2023-02-15T00:56:26.238Z,83.23
2023-02-15T00:58:53.204Z,95.00
2023-02-15T01:01:21.974Z,92.30
2023-02-15T01:03:48.999Z,97.00
2023-02-15T01:06:17.403Z,97.13
2023-02-15T01:08:45.680Z,102.07
2023-02-15T01:11:23.390Z,106.30
2023-02-15T01:13:56.115Z,106.30
2023-02-15T01:16:25.368Z,110.47
2023-02-15T01:18:52.356Z,113.83
2023-02-15T01:21:23.403Z,107.10
2023-02-15T01:23:50.841Z,109.67
2023-02-15T01:26:17.984Z,123.20
2023-02-15T01:28:45.726Z,115.67
2023-02-15T01:31:16.825Z,114.70
2023-02-15T01:33:44.072Z,113.87
2023-02-15T01:36:11.396Z,112.03
2023-02-15T01:38:38.428Z,114.83
2023-02-15T01:41:23.665Z,127.00
2023-02-15T01:43:55.198Z,119.67
2023-02-15T01:46:39.061Z,118.37
2023-02-15T01:49:16.677Z,117.60
2023-02-15T01:51:46.880Z,106.90
2023-02-15T01:54:19.134Z,113.70
2023-02-15T01:56:47.836Z,110.97
2023-02-15T01:59:19.624Z,113.27
2023-02-15T02:01:47.480Z,111.70
2023-02-15T02:04:39.206Z,108.33
2023-02-15T02:07:09.438Z,112.43
2023-02-15T02:09:37.938Z,108.90
2023-02-15T02:12:05.367Z,97.60
2023-02-15T02:14:32.612Z,93.23
2023-02-15T02:17:08.333Z,98.90
2023-02-15T02:19:40.957Z,104.20
2023-02-15T02:22:32.880Z,101.73
2023-02-15T02:25:28.589Z,102.07
2023-02-15T02:28:07.517Z,86.70
2023-02-15T02:30:46.378Z,89.67
2023-02-15T02:33:54.988Z,77.13
2023-02-15T02:36:37.881Z,79.67
2023-02-15T02:39:07.810Z,91.17
2023-02-15T02:42:07.225Z,88.23
2023-02-15T02:44:45.024Z,95.87
2023-02-15T02:47:38.036Z,96.10
2023-02-15T02:50:10.916Z,95.77
2023-02-15T02:52:48.121Z,101.50
2023-02-15T02:56:00.258Z,95.97
2023-02-15T02:58:38.306Z,89.90
2023-02-15T03:01:14.388Z,95.83
2023-02-15T03:03:57.072Z,89.03
2023-02-15T03:06:31.325Z,85.93
2023-02-15T03:09:42.925Z,93.33
2023-02-15T03:12:19.248Z,82.13
2023-02-15T03:14:50.484Z,83.60
2023-02-15T03:17:20.783Z,83.10
2023-02-15T03:19:51.187Z,83.67
2023-02-15T03:22:23.984Z,152.93
2023-02-15T03:25:31.578Z,76.93
2023-02-15T03:28:06.051Z,73.70
2023-02-15T03:30:35.209Z,81.27
2023-02-15T03:33:04.329Z,75.77
2023-02-15T03:35:58.342Z,76.03
2023-02-15T03:38:36.359Z,79.30
2023-02-15T03:41:12.076Z,79.23
2023-02-15T03:44:03.685Z,75.33
2023-02-15T03:46:35.895Z,74.97
2023-02-15T03:49:11.112Z,69.40
2023-02-15T03:51:41.965Z,67.90
2023-02-15T03:54:10.327Z,69.33
2023-02-15T03:56:40.026Z,73.57
2023-02-15T03:59:25.394Z,88.70
2023-02-15T04:02:15.857Z,78.67
2023-02-15T04:04:47.767Z,74.87
2023-02-15T04:07:14.711Z,85.27
2023-02-15T04:10:00.141Z,76.37
2023-02-15T04:12:27.051Z,70.63
2023-02-15T04:15:12.509Z,81.53
2023-02-15T04:17:39.670Z,74.47
2023-02-15T04:20:25.682Z,72.47
2023-02-15T04:23:11.135Z,58.67
2023-02-15T04:25:38.063Z,53.50
2023-02-15T04:28:05.064Z,52.20
2023-02-15T04:30:32.005Z,51.33
2023-02-15T04:32:59.740Z,52.73
2023-02-15T04:35:26.892Z,61.33
2023-02-15T04:37:53.867Z,58.60
2023-02-15T04:40:20.784Z,64.10
2023-02-15T04:42:50.835Z,61.77
2023-02-15T04:45:18.404Z,57.60
2023-02-15T04:47:46.223Z,54.73
2023-02-15T04:50:13.282Z,100.70
2023-02-15T04:52:40.225Z,89.23
2023-02-15T04:55:07.741Z,62.67
2023-02-15T04:57:34.748Z,107.10
2023-02-15T05:00:01.693Z,47.17
2023-02-15T05:02:28.702Z,52.33
2023-02-15T05:04:55.591Z,61.23
2023-02-15T05:07:22.823Z,60.97
2023-02-15T05:09:49.740Z,63.33
2023-02-15T05:12:16.804Z,65.40
2023-02-15T05:14:43.682Z,75.97
2023-02-15T05:17:10.614Z,74.87
2023-02-15T05:19:37.520Z,75.93
2023-02-15T05:22:04.897Z,66.13
2023-02-15T05:24:50.159Z,68.37
2023-02-15T05:27:35.544Z,72.87
2023-02-15T05:30:03.037Z,71.83
2023-02-15T05:32:30.185Z,71.43
2023-02-15T05:34:57.108Z,72.23
2023-02-15T05:37:24.053Z,77.27
2023-02-15T05:39:50.973Z,70.60
2023-02-15T05:42:17.905Z,67.60
2023-02-15T05:44:44.868Z,77.73
2023-02-15T05:47:11.753Z,71.33
2023-02-15T05:49:39.639Z,70.63
2023-02-15T05:52:06.583Z,71.63
2023-02-15T05:54:33.489Z,77.80
2023-02-15T05:57:00.344Z,69.43
2023-02-15T05:59:27.274Z,68.37
2023-02-15T06:01:54.439Z,69.50
2023-02-15T06:04:21.508Z,74.70
2023-02-15T06:06:48.546Z,72.43
2023-02-15T06:09:15.556Z,72.53
2023-02-15T06:11:42.507Z,74.43
2023-02-15T06:14:09.444Z,75.07
2023-02-15T06:16:36.441Z,79.77
2023-02-15T06:19:03.929Z,82.27
2023-02-15T06:21:31.824Z,77.93
2023-02-15T06:23:59.750Z,79.23
2023-02-15T06:26:26.642Z,81.77
2023-02-15T06:28:53.574Z,85.80
2023-02-15T06:31:20.556Z,76.27
2023-02-15T06:33:47.500Z,80.10
2023-02-15T06:36:14.429Z,81.07
2023-02-15T06:38:42.749Z,74.67
2023-02-15T06:41:09.756Z,80.83
2023-02-15T06:43:36.702Z,79.67
2023-02-15T06:46:03.975Z,78.80
2023-02-15T06:48:31.027Z,77.37
2023-02-15T06:50:57.956Z,82.83
2023-02-15T06:53:24.821Z,80.13
2023-02-15T06:55:51.777Z,82.83
2023-02-15T06:58:18.784Z,81.57
2023-02-15T07:00:45.790Z,81.60
2023-02-15T07:03:15.292Z,84.97
2023-02-15T07:05:42.236Z,78.30
2023-02-15T07:08:09.178Z,73.37
2023-02-15T07:10:36.087Z,81.33
2023-02-15T07:13:03.355Z,73.73
2023-02-15T07:15:30.630Z,81.67
2023-02-15T07:17:59.523Z,79.43
2023-02-15T07:20:26.742Z,76.83
2023-02-15T07:22:53.627Z,74.27
2023-02-15T07:25:21.892Z,72.67
2023-02-15T07:27:49.261Z,70.23
2023-02-15T07:30:17.819Z,72.73
2023-02-15T07:33:05.517Z,71.63
2023-02-15T07:35:34.804Z,67.13
2023-02-15T07:38:02.265Z,63.97
2023-02-15T07:40:29.223Z,67.90
2023-02-15T07:43:00.148Z,65.10
2023-02-15T07:45:28.082Z,61.77
2023-02-15T07:47:55.168Z,64.93
2023-02-15T07:50:22.135Z,66.87
2023-02-15T07:52:49.081Z,58.97
2023-02-15T07:55:16.191Z,60.60
2023-02-15T07:57:48.052Z,65.33
2023-02-15T08:00:17.880Z,59.97
2023-02-15T08:03:12.444Z,56.17
2023-02-15T08:05:40.306Z,58.30
2023-02-15T08:08:08.237Z,53.03
2023-02-15T08:10:55.520Z,50.10
2023-02-15T08:13:22.723Z,50.17
2023-02-15T08:15:52.790Z,48.67
2023-02-15T08:18:19.719Z,50.03
2023-02-15T08:20:52.763Z,49.63
2023-02-15T08:23:19.758Z,53.40
2023-02-15T08:25:46.698Z,47.97
2023-02-15T08:28:13.598Z,46.63
2023-02-15T08:30:40.504Z,48.80
2023-02-15T08:33:07.431Z,47.57
2023-02-15T08:35:35.092Z,47.70
2023-02-15T08:38:02.965Z,46.70
2023-02-15T08:40:29.906Z,41.57
2023-02-15T08:42:56.799Z,46.20
2023-02-15T08:45:25.698Z,48.80
2023-02-15T08:47:52.688Z,48.07
2023-02-15T08:50:19.612Z,49.57
2023-02-15T08:52:46.621Z,46.13
2023-02-15T08:55:13.629Z,48.13
2023-02-15T08:57:45.876Z,50.47
2023-02-15T09:00:13.309Z,45.67
2023-02-15T09:02:40.243Z,47.17
2023-02-15T09:05:07.551Z,50.80
2023-02-15T09:07:34.564Z,52.77
2023-02-15T09:10:01.417Z,50.70
2023-02-15T09:12:28.296Z,47.70
2023-02-15T09:14:55.209Z,48.40
2023-02-15T09:17:22.464Z,47.53
2023-02-15T09:19:49.346Z,52.00
2023-02-15T09:22:16.290Z,50.77
2023-02-15T09:24:43.229Z,49.00
2023-02-15T09:27:10.078Z,47.27
2023-02-15T09:29:37.052Z,46.70
2023-02-15T09:32:04.430Z,45.63
2023-02-15T09:34:34.069Z,46.87
2023-02-15T09:37:01.701Z,40.30
2023-02-15T09:39:29.070Z,46.03
2023-02-15T09:42:10.947Z,45.17
2023-02-15T09:44:49.771Z,44.07
2023-02-15T09:47:19.456Z,42.07
2023-02-15T09:50:23.532Z,43.10
2023-02-15T09:52:56.907Z,42.60
2023-02-15T09:55:54.760Z,39.77
2023-02-15T09:58:52.027Z,41.27
2023-02-15T10:01:29.424Z,38.80
2023-02-15T10:04:17.402Z,42.50
2023-02-15T10:07:14.074Z,40.67
2023-02-15T10:09:40.953Z,42.63
2023-02-15T10:12:45.567Z,36.63
2023-02-15T10:15:27.185Z,40.07
2023-02-15T10:18:25.008Z,36.13
2023-02-15T10:21:13.376Z,39.93
2023-02-15T10:23:59.149Z,37.67
2023-02-15T10:26:37.374Z,37.53
2023-02-15T10:29:17.223Z,37.50
2023-02-15T10:31:54.357Z,41.43
2023-02-15T10:34:29.125Z,39.47
2023-02-15T10:37:22.177Z,35.20
2023-02-15T10:39:54.927Z,41.53
2023-02-15T10:42:51.384Z,39.07
2023-02-15T10:45:54.845Z,39.53
2023-02-15T10:48:26.063Z,38.60
2023-02-15T10:50:56.463Z,38.60
2023-02-15T10:53:41.363Z,40.53
2023-02-15T10:56:32.466Z,39.93
2023-02-15T10:59:05.722Z,35.03
2023-02-15T11:01:41.622Z,42.47
2023-02-15T11:04:23.303Z,36.37
2023-02-15T11:06:58.801Z,38.73
2023-02-15T11:09:34.640Z,42.20
2023-02-15T11:12:02.436Z,42.07
2023-02-15T11:14:52.085Z,37.27
2023-02-15T11:17:24.800Z,41.10
2023-02-15T11:20:19.779Z,36.43
2023-02-15T11:22:50.677Z,40.53
2023-02-15T11:25:22.810Z,41.17
2023-02-15T11:27:50.806Z,37.33
2023-02-15T11:30:23.455Z,39.33
2023-02-15T11:32:59.897Z,34.87
2023-02-15T11:35:42.754Z,36.80
2023-02-15T11:38:32.724Z,39.97
2023-02-15T11:41:18.077Z,37.80
2023-02-15T11:43:59.417Z,37.47
2023-02-15T11:46:26.449Z,41.57
2023-02-15T11:48:53.446Z,41.60
2023-02-15T11:51:24.042Z,41.57
2023-02-15T11:53:52.799Z,48.07
2023-02-15T11:56:29.153Z,40.63
2023-02-15T11:59:05.065Z,42.77
2023-02-15T12:01:42.088Z,43.50
2023-02-15T12:04:27.204Z,44.90
2023-02-15T12:07:03.477Z,44.33
2023-02-15T12:09:36.026Z,36.70
2023-02-15T12:12:36.270Z,38.97
2023-02-15T12:15:06.126Z,41.50
2023-02-15T12:17:53.056Z,37.90
2023-02-15T12:20:19.891Z,39.47
2023-02-15T12:23:04.589Z,40.30
2023-02-15T12:25:35.644Z,40.63
2023-02-15T12:28:03.925Z,38.23
2023-02-15T12:30:37.022Z,35.67
2023-02-15T12:33:15.553Z,38.80
2023-02-15T12:35:43.670Z,41.27
2023-02-15T12:38:10.505Z,36.73
2023-02-15T12:40:41.464Z,39.87
2023-02-15T12:43:46.299Z,38.13
2023-02-15T12:46:27.229Z,34.30
2023-02-15T12:49:10.892Z,36.73
2023-02-15T12:51:53.897Z,33.70
2023-02-15T12:54:23.959Z,33.57
2023-02-15T12:56:51.036Z,34.53
2023-02-15T12:59:23.123Z,32.07
2023-02-15T13:01:52.424Z,30.20
2023-02-15T13:04:31.463Z,35.20
2023-02-15T13:07:03.823Z,33.03
2023-02-15T13:09:33.738Z,36.90
2023-02-15T13:12:24.488Z,36.07
2023-02-15T13:14:53.294Z,34.37
2023-02-15T13:17:30.689Z,33.97
2023-02-15T13:20:04.471Z,35.83
2023-02-15T13:22:44.377Z,31.77
2023-02-15T13:25:26.285Z,31.57
2023-02-15T13:27:57.462Z,30.97
2023-02-15T13:30:27.208Z,34.17
2023-02-15T13:32:59.028Z,28.50
2023-02-15T13:35:30.756Z,31.00
2023-02-15T13:38:36.133Z,36.27
2023-02-15T13:41:10.437Z,32.03
2023-02-15T13:44:23.404Z,33.10
2023-02-15T13:47:02.199Z,30.63
2023-02-15T13:50:05.101Z,30.67
2023-02-15T13:52:39.170Z,31.17
2023-02-15T13:55:24.241Z,29.23
2023-02-15T13:58:15.694Z,32.50
2023-02-15T14:00:48.439Z,28.70
2023-02-15T14:03:49.448Z,32.67
2023-02-15T14:06:37.887Z,29.77
2023-02-15T14:09:39.335Z,28.13
2023-02-15T14:12:15.101Z,33.20
2023-02-15T14:14:49.000Z,32.13
2023-02-15T14:17:25.235Z,28.97
2023-02-15T14:19:54.930Z,29.30
2023-02-15T14:22:46.703Z,26.90
2023-02-15T14:25:14.558Z,24.80
2023-02-15T14:27:57.425Z,31.23
2023-02-15T14:30:27.708Z,28.80
2023-02-15T14:33:00.873Z,31.23
2023-02-15T14:35:30.148Z,28.80
2023-02-15T14:38:22.698Z,29.27
2023-02-15T14:41:21.842Z,28.77
2023-02-15T14:44:04.508Z,30.57
2023-02-15T14:46:48.542Z,29.47
2023-02-15T14:49:19.365Z,26.27
2023-02-15T14:51:50.427Z,29.93
2023-02-15T14:54:18.355Z,27.43
2023-02-15T14:56:46.869Z,29.87
2023-02-15T14:59:21.198Z,26.03
2023-02-15T15:02:13.617Z,30.40
2023-02-15T15:05:03.793Z,25.50
2023-02-15T15:07:44.574Z,29.20
2023-02-15T15:10:17.227Z,26.57
2023-02-15T15:12:49.966Z,25.93
2023-02-15T15:15:29.599Z,26.97
2023-02-15T15:18:09.916Z,30.93
2023-02-15T15:20:51.943Z,32.30
2023-02-15T15:23:22.076Z,30.90
2023-02-15T15:26:24.834Z,35.43
2023-02-15T15:28:51.713Z,32.70
2023-02-15T15:31:37.148Z,31.50
2023-02-15T15:34:22.650Z,31.20
2023-02-15T15:37:24.903Z,31.83
2023-02-15T15:40:14.885Z,30.97
2023-02-15T15:43:09.426Z,27.60
2023-02-15T15:45:57.603Z,26.23
2023-02-15T15:48:42.018Z,29.33
2023-02-15T15:51:21.861Z,32.13
2023-02-15T15:53:54.288Z,33.87
2023-02-15T15:56:25.780Z,33.10
2023-02-15T15:58:56.709Z,31.93
2023-02-15T16:01:35.383Z,33.83
2023-02-15T16:04:02.687Z,33.47
2023-02-15T16:06:38.123Z,36.67
2023-02-15T16:09:18.989Z,34.93
2023-02-15T16:11:52.293Z,32.63
2023-02-15T16:14:31.253Z,35.73
2023-02-15T16:17:01.533Z,36.30
2023-02-15T16:19:39.172Z,30.73
2023-02-15T16:22:21.970Z,33.13
2023-02-15T16:25:26.582Z,32.87
2023-02-15T16:27:53.980Z,35.63
2023-02-15T16:30:32.888Z,35.63
2023-02-15T16:33:17.555Z,37.17
2023-02-15T16:36:00.412Z,35.63
2023-02-15T16:38:45.902Z,37.70
2023-02-15T16:41:16.683Z,37.53
2023-02-15T16:43:48.100Z,39.50
2023-02-15T16:46:21.914Z,36.47
2023-02-15T16:48:53.075Z,35.40
2023-02-15T16:51:32.851Z,37.50
2023-02-15T16:54:07.625Z,34.27
2023-02-15T16:56:35.331Z,34.30
2023-02-15T16:59:03.061Z,32.60
2023-02-15T17:01:33.146Z,34.87
2023-02-15T17:04:23.649Z,35.53
2023-02-15T17:07:16.047Z,33.87
2023-02-15T17:09:57.156Z,34.20
2023-02-15T17:12:47.184Z,40.60
2023-02-15T17:15:36.975Z,31.70
2023-02-15T17:18:24.442Z,35.53
2023-02-15T17:20:54.843Z,32.10
2023-02-15T17:23:21.680Z,32.23
2023-02-15T17:25:49.601Z,38.50
2023-02-15T17:28:20.966Z,34.50
2023-02-15T17:30:48.809Z,33.07
2023-02-15T17:33:40.482Z,39.07
2023-02-15T17:36:16.858Z,34.37
2023-02-15T17:38:59.032Z,36.97
2023-02-15T17:41:28.214Z,34.30
2023-02-15T17:43:55.227Z,36.27
2023-02-15T17:46:25.741Z,38.67
2023-02-15T17:48:56.095Z,40.63
2023-02-15T17:51:24.060Z,37.40
2023-02-15T17:54:09.696Z,41.47
2023-02-15T17:56:38.165Z,35.53
2023-02-15T17:59:07.709Z,43.67
2023-02-15T18:02:02.741Z,40.67
2023-02-15T18:04:48.543Z,43.07
2023-02-15T18:07:36.946Z,44.07
2023-02-15T18:10:35.977Z,43.13
2023-02-15T18:13:04.480Z,47.60
2023-02-15T18:15:31.569Z,44.30
2023-02-15T18:17:58.856Z,44.60
2023-02-15T18:20:32.290Z,46.63
2023-02-15T18:22:59.195Z,43.03
2023-02-15T18:25:26.187Z,43.30
2023-02-15T18:27:55.090Z,41.17
2023-02-15T18:30:26.288Z,46.17
2023-02-15T18:32:56.763Z,41.60
2023-02-15T18:35:26.707Z,44.37
2023-02-15T18:37:54.796Z,40.80
2023-02-15T18:40:24.931Z,43.23
2023-02-15T18:42:51.983Z,51.57
2023-02-15T18:45:21.071Z,46.23
2023-02-15T18:47:48.833Z,43.33
2023-02-15T18:50:18.002Z,43.00
2023-02-15T18:52:47.408Z,40.23
2023-02-15T18:55:25.001Z,42.67
2023-02-15T18:57:54.614Z,44.90
2023-02-15T19:00:28.443Z,42.03
2023-02-15T19:02:57.179Z,42.83
2023-02-15T19:05:25.449Z,42.50
2023-02-15T19:07:52.575Z,44.93
2023-02-15T19:10:25.840Z,48.40
2023-02-15T19:12:54.111Z,49.70
2023-02-15T19:15:23.719Z,45.77
2023-02-15T19:17:51.986Z,47.37
2023-02-15T19:20:20.415Z,47.83
2023-02-15T19:22:49.203Z,45.27
2023-02-15T19:25:20.941Z,50.80
2023-02-15T19:27:48.112Z,47.17
2023-02-15T19:30:16.896Z,43.87
2023-02-15T19:32:45.235Z,48.50
2023-02-15T19:35:22.423Z,48.33
2023-02-15T19:37:56.624Z,44.80
2023-02-15T19:40:28.117Z,45.30
2023-02-15T19:42:55.478Z,49.07
2023-02-15T19:45:25.571Z,42.57
2023-02-15T19:47:54.159Z,44.73
2023-02-15T19:50:24.328Z,44.40
2023-02-15T19:52:51.954Z,46.93
2023-02-15T19:55:24.368Z,42.53
2023-02-15T19:57:52.839Z,49.53
2023-02-15T20:00:22.830Z,49.07
2023-02-15T20:02:49.970Z,45.33
2023-02-15T20:05:17.353Z,47.10
2023-02-15T20:07:47.660Z,43.83
2023-02-15T20:10:19.514Z,48.67
2023-02-15T20:12:47.627Z,51.47
2023-02-15T20:15:28.902Z,49.80
2023-02-15T20:17:57.267Z,47.90
2023-02-15T20:20:39.645Z,47.83
2023-02-15T20:23:07.205Z,50.63
2023-02-15T20:25:34.259Z,56.60
2023-02-15T20:28:02.509Z,50.57
2023-02-15T20:30:31.846Z,56.77
2023-02-15T20:32:59.093Z,56.93
2023-02-15T20:35:28.917Z,52.17
2023-02-15T20:37:59.644Z,53.50
2023-02-15T20:40:34.851Z,53.60
2023-02-15T20:43:02.730Z,52.23
2023-02-15T20:45:32.575Z,56.43
2023-02-15T20:48:02.057Z,58.13
2023-02-15T20:50:33.384Z,52.00
2023-02-15T20:53:02.921Z,59.27
2023-02-15T20:55:31.938Z,56.10
2023-02-15T20:57:59.692Z,54.10
2023-02-15T21:00:31.117Z,60.27
2023-02-15T21:02:59.960Z,56.70
2023-02-15T21:05:33.531Z,56.93
2023-02-15T21:08:00.689Z,56.63
2023-02-15T21:10:30.825Z,56.97
2023-02-15T21:13:01.089Z,56.87
2023-02-15T21:15:31.352Z,58.23
2023-02-15T21:18:00.980Z,58.23
2023-02-15T21:20:30.113Z,55.73
2023-02-15T21:22:59.785Z,55.17
2023-02-15T21:25:33.201Z,61.80
2023-02-15T21:28:00.267Z,54.57
2023-02-15T21:30:27.746Z,59.43
2023-02-15T21:32:54.868Z,61.27
2023-02-15T21:35:22.217Z,56.43
2023-02-15T21:37:51.497Z,61.70
2023-02-15T21:40:21.466Z,59.93
2023-02-15T21:43:07.218Z,60.63
2023-02-15T21:45:52.704Z,62.23
2023-02-15T21:48:21.869Z,55.37
2023-02-15T21:51:10.764Z,60.73
2023-02-15T21:53:45.878Z,58.13
2023-02-15T21:56:19.330Z,61.67
2023-02-15T21:58:47.014Z,64.10
2023-02-15T22:01:25.639Z,66.37
2023-02-15T22:03:58.168Z,58.77
2023-02-15T22:06:25.570Z,61.27
2023-02-15T22:08:52.510Z,60.17
2023-02-15T22:11:22.691Z,62.10
2023-02-15T22:13:50.985Z,63.80
2023-02-15T22:16:20.331Z,60.53
2023-02-15T22:18:48.400Z,58.87
2023-02-15T22:21:19.389Z,57.63
2023-02-15T22:23:47.306Z,63.50
2023-02-15T22:26:21.541Z,58.10
2023-02-15T22:28:48.669Z,61.63
2023-02-15T22:31:20.241Z,55.70
2023-02-15T22:33:49.826Z,60.73
2023-02-15T22:36:29.734Z,55.77
2023-02-15T22:38:57.996Z,55.43
2023-02-15T22:41:30.256Z,59.37
2023-02-15T22:43:58.126Z,57.50
2023-02-15T22:46:26.926Z,54.37
2023-02-15T22:48:53.990Z,60.17
2023-02-15T22:51:23.967Z,53.93
2023-02-15T22:53:54.640Z,57.00
2023-02-15T22:56:32.318Z,56.00
2023-02-15T22:59:10.292Z,57.13
2023-02-15T23:01:38.639Z,61.57
2023-02-15T23:04:07.215Z,55.43
2023-02-15T23:06:34.700Z,66.43
2023-02-15T23:09:01.980Z,59.07
2023-02-15T23:11:29.352Z,53.17
2023-02-15T23:13:56.529Z,54.70
2023-02-15T23:16:23.434Z,54.70
2023-02-15T23:18:50.426Z,57.13
2023-02-15T23:21:24.998Z,51.80
2023-02-15T23:23:58.652Z,51.30
2023-02-15T23:26:31.730Z,50.83
2023-02-15T23:29:01.026Z,54.63
2023-02-15T23:31:31.722Z,52.20
2023-02-15T23:34:00.676Z,50.53
2023-02-15T23:36:38.948Z,45.97
2023-02-15T23:39:41.846Z,47.83
2023-02-15T23:42:25.887Z,47.23
2023-02-15T23:44:52.936Z,44.83
2023-02-15T23:47:19.738Z,43.90
2023-02-15T23:49:48.078Z,44.67
2023-02-15T23:52:14.984Z,47.60
2023-02-15T23:54:41.899Z,44.03
2023-02-15T23:57:12.960Z,47.03
2023-02-15T23:59:43.613Z,45.83
